createdAt,value
2023-03-04T00:02:21.218Z,3.08
2023-03-04T00:04:54.298Z,3.09
2023-03-04T00:07:27.271Z,3.05
2023-03-04T00:10:00.148Z,3.02
2023-03-04T00:12:33.703Z,2.73
2023-03-04T00:15:08.401Z,2.66
2023-03-04T00:17:43.380Z,2.81
2023-03-04T00:20:16.613Z,2.80
2023-03-04T00:22:49.579Z,2.76
2023-03-04T00:25:22.542Z,2.70
2023-03-04T00:27:55.765Z,2.76
2023-03-04T00:30:29.074Z,2.84
2023-03-04T00:33:04.346Z,2.71
2023-03-04T00:35:37.695Z,2.67
2023-03-04T00:38:10.655Z,2.69
2023-03-04T00:40:43.804Z,2.56
2023-03-04T00:43:16.954Z,2.61
2023-03-04T00:45:49.996Z,2.54
2023-03-04T00:48:24.718Z,2.52
2023-03-04T00:50:57.727Z,2.57
2023-03-04T00:53:30.644Z,2.56
2023-03-04T00:56:03.651Z,2.61
2023-03-04T00:58:36.740Z,2.72
2023-03-04T01:01:09.701Z,2.70
2023-03-04T01:03:44.146Z,2.60
2023-03-04T01:06:17.646Z,2.74
2023-03-04T01:08:50.798Z,2.81
2023-03-04T01:11:23.680Z,2.73
2023-03-04T01:13:57.249Z,2.66
2023-03-04T01:16:31.134Z,2.60
2023-03-04T01:19:05.647Z,2.64
2023-03-04T01:21:38.894Z,2.68
2023-03-04T01:24:12.390Z,2.71
2023-03-04T01:26:45.500Z,2.60
2023-03-04T01:29:18.538Z,2.49
2023-03-04T01:31:51.459Z,2.60
2023-03-04T01:34:25.985Z,2.51
2023-03-04T01:36:58.855Z,2.67
2023-03-04T01:39:32.133Z,2.63
2023-03-04T01:42:05.682Z,2.37
2023-03-04T01:44:38.871Z,2.56
2023-03-04T01:47:11.890Z,2.38
2023-03-04T01:49:46.841Z,2.54
2023-03-04T01:52:19.879Z,2.54
2023-03-04T01:54:53.211Z,2.49
2023-03-04T01:57:27.523Z,2.65
2023-03-04T02:00:19.077Z,2.49
2023-03-04T02:02:53.832Z,2.39
2023-03-04T02:05:29.248Z,2.21
2023-03-04T02:08:02.751Z,2.25
2023-03-04T02:10:36.429Z,2.44
2023-03-04T02:13:10.866Z,2.49
2023-03-04T02:15:44.362Z,2.53
2023-03-04T02:18:18.468Z,2.49
2023-03-04T02:20:57.600Z,2.34
2023-03-04T02:23:35.608Z,2.52
2023-03-04T02:26:12.505Z,2.36
2023-03-04T02:28:45.741Z,2.48
2023-03-04T02:31:23.527Z,2.39
2023-03-04T02:33:58.216Z,2.37
2023-03-04T02:36:31.901Z,2.56
2023-03-04T02:39:06.704Z,2.59
2023-03-04T02:41:41.483Z,2.56
2023-03-04T02:44:17.884Z,2.51
2023-03-04T02:46:52.213Z,2.51
2023-03-04T02:49:26.819Z,2.63
2023-03-04T02:52:01.980Z,2.38
2023-03-04T02:54:35.088Z,2.44
2023-03-04T02:57:10.402Z,2.47
2023-03-04T02:59:43.963Z,2.40
2023-03-04T03:02:17.194Z,2.35
2023-03-04T03:04:50.764Z,2.42
2023-03-04T03:07:23.900Z,2.41
2023-03-04T03:09:56.808Z,2.28
2023-03-04T03:12:31.988Z,2.17
2023-03-04T03:15:06.225Z,2.15
2023-03-04T03:17:39.953Z,2.34
2023-03-04T03:20:14.091Z,2.32
2023-03-04T03:22:47.179Z,2.31
2023-03-04T03:25:20.382Z,2.36
2023-03-04T03:27:54.741Z,2.47
2023-03-04T03:30:27.696Z,2.26
2023-03-04T03:33:00.622Z,2.21
2023-03-04T03:35:33.665Z,2.40
2023-03-04T03:38:07.103Z,2.29
2023-03-04T03:40:40.263Z,2.25
2023-03-04T03:43:15.198Z,2.37
2023-03-04T03:45:48.262Z,2.54
2023-03-04T03:48:21.404Z,2.56
2023-03-04T03:50:54.760Z,2.37
2023-03-04T03:53:28.235Z,2.50
2023-03-04T03:56:01.518Z,2.49
2023-03-04T03:58:36.101Z,2.55
2023-03-04T04:01:09.352Z,2.51
2023-03-04T04:03:42.537Z,2.50
2023-03-04T04:06:15.345Z,2.41
2023-03-04T04:08:48.278Z,2.42
2023-03-04T04:11:21.493Z,2.46
2023-03-04T04:13:56.899Z,2.17
2023-03-04T04:16:30.684Z,2.24
2023-03-04T04:19:03.835Z,2.28
2023-03-04T04:21:37.055Z,2.36
2023-03-04T04:24:10.473Z,2.44
2023-03-04T04:26:44.072Z,2.22
2023-03-04T04:29:18.757Z,2.36
2023-03-04T04:31:51.680Z,2.32
2023-03-04T04:34:24.881Z,2.30
2023-03-04T04:36:57.862Z,2.20
2023-03-04T04:39:30.880Z,2.18
2023-03-04T04:42:03.875Z,2.13
2023-03-04T04:44:39.127Z,1.94
2023-03-04T04:47:12.322Z,2.00
2023-03-04T04:49:45.387Z,2.19
2023-03-04T04:52:18.596Z,2.21
2023-03-04T04:54:51.558Z,2.09
2023-03-04T04:57:24.492Z,2.17
2023-03-04T04:59:58.879Z,1.94
2023-03-04T05:02:36.378Z,2.08
2023-03-04T05:05:09.773Z,2.19
2023-03-04T05:07:42.716Z,2.17
2023-03-04T05:10:15.724Z,2.28
2023-03-04T05:12:49.912Z,2.25
2023-03-04T05:15:24.953Z,2.31
2023-03-04T05:17:58.600Z,2.33
2023-03-04T05:20:31.737Z,2.33
2023-03-04T05:23:05.345Z,2.35
2023-03-04T05:25:38.410Z,2.22
2023-03-04T05:28:12.577Z,2.27
2023-03-04T05:30:47.736Z,2.21
2023-03-04T05:33:21.476Z,2.43
2023-03-04T05:35:55.177Z,2.52
2023-03-04T05:38:28.179Z,2.44
2023-03-04T05:41:02.066Z,2.49
2023-03-04T05:43:36.121Z,2.25
2023-03-04T05:46:14.484Z,2.27
2023-03-04T05:48:47.625Z,2.46
2023-03-04T05:51:20.994Z,2.53
2023-03-04T05:53:54.000Z,2.53
2023-03-04T05:56:26.978Z,2.47
2023-03-04T05:59:00.135Z,2.40
2023-03-04T06:01:34.523Z,2.56
2023-03-04T06:04:07.807Z,2.56
2023-03-04T06:06:41.149Z,2.78
2023-03-04T06:09:14.337Z,2.86
2023-03-04T06:11:48.990Z,2.74
2023-03-04T06:14:21.934Z,2.74
2023-03-04T06:16:56.689Z,2.66
2023-03-04T06:19:29.880Z,2.73
2023-03-04T06:22:03.152Z,2.94
2023-03-04T06:24:37.423Z,2.99
2023-03-04T06:27:10.534Z,3.02
2023-03-04T06:29:43.478Z,3.15
2023-03-04T06:32:18.052Z,3.08
2023-03-04T06:34:51.036Z,3.14
2023-03-04T06:37:24.136Z,3.23
2023-03-04T06:39:57.444Z,3.25
2023-03-04T06:42:30.767Z,3.13
2023-03-04T06:45:04.540Z,3.18
2023-03-04T06:47:39.165Z,3.21
2023-03-04T06:50:13.375Z,3.25
2023-03-04T06:52:46.996Z,3.34
2023-03-04T06:55:21.214Z,3.26
2023-03-04T06:57:54.499Z,3.18
2023-03-04T07:00:28.045Z,3.36
2023-03-04T07:03:02.539Z,3.45
2023-03-04T07:05:35.546Z,3.51
2023-03-04T07:08:08.714Z,3.49
2023-03-04T07:10:41.922Z,3.58
2023-03-04T07:13:15.465Z,3.55
2023-03-04T07:15:49.399Z,3.56
2023-03-04T07:18:24.574Z,3.63
2023-03-04T07:20:57.722Z,3.80
2023-03-04T07:23:31.232Z,3.84
2023-03-04T07:26:05.066Z,3.91
2023-03-04T07:28:38.465Z,3.90
2023-03-04T07:31:12.529Z,3.99
2023-03-04T07:33:47.167Z,4.04
2023-03-04T07:36:20.844Z,4.10
2023-03-04T07:38:55.195Z,4.16
2023-03-04T07:41:29.299Z,4.19
2023-03-04T07:44:02.451Z,4.26
2023-03-04T07:46:36.300Z,4.31
2023-03-04T07:49:12.979Z,4.39
2023-03-04T07:51:46.169Z,4.48
2023-03-04T07:54:20.217Z,4.50
2023-03-04T07:56:53.939Z,4.48
2023-03-04T07:59:27.397Z,4.53
2023-03-04T08:02:00.895Z,4.63
2023-03-04T08:04:35.391Z,4.73
2023-03-04T08:07:08.456Z,4.85
2023-03-04T08:09:41.664Z,4.94
2023-03-04T08:12:16.540Z,5.04
2023-03-04T08:14:50.252Z,5.10
2023-03-04T08:17:23.655Z,5.15
2023-03-04T08:19:58.546Z,5.25
2023-03-04T08:22:31.804Z,5.37
2023-03-04T08:25:05.194Z,5.44
2023-03-04T08:27:38.411Z,5.50
2023-03-04T08:30:12.215Z,5.72
2023-03-04T08:32:45.682Z,6.04
2023-03-04T08:35:20.732Z,6.40
2023-03-04T08:37:53.841Z,6.53
2023-03-04T08:40:27.357Z,6.51
2023-03-04T08:43:00.794Z,6.56
2023-03-04T08:45:33.905Z,6.58
2023-03-04T08:48:07.302Z,6.68
2023-03-04T08:50:42.142Z,6.93
2023-03-04T08:53:16.040Z,7.12
2023-03-04T08:55:49.842Z,7.21
2023-03-04T08:58:23.024Z,7.21
2023-03-04T09:00:56.122Z,7.26
2023-03-04T09:03:29.404Z,7.32
2023-03-04T09:06:04.573Z,7.37
2023-03-04T09:08:38.192Z,7.36
2023-03-04T09:11:11.489Z,7.27
2023-03-04T09:13:45.005Z,7.24
2023-03-04T09:16:18.749Z,7.27
2023-03-04T09:18:52.112Z,7.27
2023-03-04T09:21:26.838Z,7.27
2023-03-04T09:24:00.380Z,7.36
2023-03-04T09:26:33.710Z,7.45
2023-03-04T09:29:06.892Z,7.45
2023-03-04T09:31:40.172Z,7.55
2023-03-04T09:34:14.262Z,7.73
2023-03-04T09:36:49.964Z,7.89
2023-03-04T09:39:24.816Z,7.87
2023-03-04T09:41:59.186Z,7.79
2023-03-04T09:44:33.932Z,7.77
2023-03-04T09:47:07.897Z,7.80
2023-03-04T09:49:42.343Z,7.74
2023-03-04T09:52:25.064Z,7.77
2023-03-04T09:55:05.368Z,7.70
2023-03-04T09:57:45.389Z,7.68
2023-03-04T10:00:20.246Z,7.69
2023-03-04T10:03:06.749Z,7.76
2023-03-04T10:05:42.789Z,7.72
2023-03-04T10:08:31.896Z,7.84
2023-03-04T10:11:07.983Z,7.98
2023-03-04T10:13:51.766Z,8.19
2023-03-04T10:16:27.610Z,8.16
2023-03-04T10:19:03.645Z,8.22
2023-03-04T10:21:40.319Z,8.23
2023-03-04T10:24:18.063Z,8.16
2023-03-04T10:26:53.536Z,8.21
2023-03-04T10:29:27.374Z,8.19
2023-03-04T10:32:00.804Z,8.35
2023-03-04T10:34:34.047Z,8.33
2023-03-04T10:37:08.787Z,8.48
2023-03-04T10:39:44.449Z,8.40
2023-03-04T10:42:37.506Z,8.40
2023-03-04T10:45:20.600Z,8.33
2023-03-04T10:47:54.501Z,8.27
2023-03-04T10:50:28.325Z,8.27
2023-03-04T10:53:01.403Z,8.28
2023-03-04T10:55:45.122Z,8.23
2023-03-04T10:58:19.394Z,8.19
2023-03-04T11:01:00.593Z,8.23
2023-03-04T11:03:35.738Z,8.25
2023-03-04T11:06:11.941Z,8.24
2023-03-04T11:08:45.790Z,8.34
2023-03-04T11:11:30.004Z,8.37
2023-03-04T11:14:09.987Z,8.40
2023-03-04T11:16:53.222Z,8.42
2023-03-04T11:19:30.303Z,8.41
2023-03-04T11:22:04.294Z,8.33
2023-03-04T11:24:38.888Z,8.26
2023-03-04T11:27:18.272Z,8.18
2023-03-04T11:29:56.340Z,8.21
2023-03-04T11:32:31.130Z,8.34
2023-03-04T11:35:09.173Z,8.50
2023-03-04T11:37:45.320Z,8.76
2023-03-04T11:40:24.771Z,8.88
2023-03-04T11:43:02.855Z,9.04
2023-03-04T11:45:45.395Z,9.01
2023-03-04T11:48:24.459Z,9.00
2023-03-04T11:50:59.378Z,9.00
2023-03-04T11:53:41.574Z,9.03
2023-03-04T11:56:22.183Z,9.04
2023-03-04T11:59:07.192Z,9.12
2023-03-04T12:01:46.604Z,9.04
2023-03-04T12:04:31.137Z,9.01
2023-03-04T12:07:14.485Z,9.01
2023-03-04T12:09:55.632Z,9.18
2023-03-04T12:12:36.068Z,9.39
2023-03-04T12:15:16.776Z,9.41
2023-03-04T12:18:00.496Z,9.34
2023-03-04T12:20:51.348Z,9.38
2023-03-04T12:23:39.097Z,9.40
2023-03-04T12:26:20.817Z,9.38
2023-03-04T12:28:58.353Z,9.27
2023-03-04T12:31:36.338Z,9.21
2023-03-04T12:34:21.937Z,9.40
2023-03-04T12:36:59.871Z,9.35
2023-03-04T12:39:34.090Z,9.47
2023-03-04T12:42:10.421Z,9.53
2023-03-04T12:44:47.904Z,9.47
2023-03-04T12:47:30.201Z,9.35
2023-03-04T12:50:25.008Z,9.45
2023-03-04T12:53:02.232Z,9.35
2023-03-04T12:55:37.643Z,9.32
2023-03-04T12:58:16.257Z,9.24
2023-03-04T13:00:53.273Z,9.30
2023-03-04T13:03:33.705Z,9.21
2023-03-04T13:06:10.899Z,9.28
2023-03-04T13:08:50.654Z,9.26
2023-03-04T13:11:47.967Z,9.36
2023-03-04T13:14:26.352Z,9.39
2023-03-04T13:17:01.958Z,9.47
2023-03-04T13:19:51.038Z,9.38
2023-03-04T13:22:36.574Z,9.31
2023-03-04T13:25:33.839Z,9.38
2023-03-04T13:28:12.940Z,9.37
2023-03-04T13:31:20.617Z,9.34
2023-03-04T13:34:00.828Z,9.34
2023-03-04T13:36:48.928Z,9.41
2023-03-04T13:39:30.962Z,9.49
2023-03-04T13:42:05.173Z,9.38
2023-03-04T13:45:02.412Z,9.31
2023-03-04T13:47:46.752Z,9.35
2023-03-04T13:50:29.945Z,9.42
2023-03-04T13:53:23.841Z,9.37
2023-03-04T13:56:09.870Z,9.44
2023-03-04T13:58:43.056Z,9.42
2023-03-04T14:01:23.550Z,9.37
2023-03-04T14:03:56.621Z,9.32
2023-03-04T14:06:30.299Z,9.33
2023-03-04T14:09:13.870Z,9.35
2023-03-04T14:11:49.451Z,9.34
2023-03-04T14:14:25.438Z,9.36
2023-03-04T14:16:59.916Z,9.38
2023-03-04T14:19:36.103Z,9.33
2023-03-04T14:22:21.685Z,9.28
2023-03-04T14:24:58.624Z,9.19
2023-03-04T14:27:35.448Z,9.12
2023-03-04T14:30:26.121Z,9.08
2023-03-04T14:33:10.655Z,9.09
2023-03-04T14:35:48.623Z,9.07
2023-03-04T14:38:24.464Z,9.05
2023-03-04T14:41:01.749Z,9.03
2023-03-04T14:43:37.985Z,9.01
2023-03-04T14:46:13.715Z,8.95
2023-03-04T14:48:48.921Z,8.91
2023-03-04T14:51:30.309Z,8.93
2023-03-04T14:54:03.517Z,8.88
2023-03-04T14:56:37.506Z,8.91
2023-03-04T14:59:14.227Z,8.87
2023-03-04T15:01:47.425Z,8.85
2023-03-04T15:04:21.233Z,8.82
2023-03-04T15:06:54.786Z,8.79
2023-03-04T15:09:28.802Z,8.75
2023-03-04T15:12:05.392Z,8.74
2023-03-04T15:14:48.273Z,8.74
2023-03-04T15:17:26.256Z,8.73
2023-03-04T15:20:04.255Z,8.73
2023-03-04T15:22:38.375Z,8.68
2023-03-04T15:25:15.288Z,8.74
2023-03-04T15:27:48.874Z,8.64
2023-03-04T15:30:24.765Z,8.63
2023-03-04T15:32:58.740Z,8.63
2023-03-04T15:35:33.142Z,8.61
2023-03-04T15:38:07.462Z,8.57
2023-03-04T15:40:43.013Z,8.60
2023-03-04T15:43:17.081Z,8.59
2023-03-04T15:45:52.434Z,8.57
2023-03-04T15:48:25.851Z,8.53
2023-03-04T15:51:00.397Z,8.49
2023-03-04T15:53:34.845Z,8.48
2023-03-04T15:56:09.643Z,8.46
2023-03-04T15:58:43.282Z,8.43
2023-03-04T16:01:18.061Z,8.44
2023-03-04T16:03:53.406Z,8.38
2023-03-04T16:06:28.790Z,8.39
2023-03-04T16:09:06.882Z,8.39
2023-03-04T16:11:44.404Z,8.35
2023-03-04T16:14:18.704Z,8.36
2023-03-04T16:16:53.883Z,8.40
2023-03-04T16:19:26.892Z,8.32
2023-03-04T16:21:59.777Z,8.30
2023-03-04T16:24:34.315Z,8.28
2023-03-04T16:27:07.799Z,8.25
2023-03-04T16:29:41.608Z,8.26
2023-03-04T16:32:16.384Z,8.26
2023-03-04T16:34:50.444Z,8.25
2023-03-04T16:37:23.614Z,8.25
2023-03-04T16:39:57.428Z,8.23
2023-03-04T16:42:30.524Z,8.18
2023-03-04T16:45:03.782Z,8.19
2023-03-04T16:47:38.665Z,8.17
2023-03-04T16:50:14.645Z,8.14
2023-03-04T16:52:48.822Z,8.11
2023-03-04T16:55:23.968Z,8.12
2023-03-04T16:57:57.874Z,8.10
2023-03-04T17:00:31.292Z,8.05
2023-03-04T17:03:05.982Z,8.08
2023-03-04T17:05:39.008Z,8.10
2023-03-04T17:08:12.176Z,8.08
2023-03-04T17:10:45.167Z,8.10
2023-03-04T17:13:19.596Z,8.09
2023-03-04T17:15:53.200Z,8.07
2023-03-04T17:18:28.372Z,8.09
2023-03-04T17:21:04.994Z,8.08
2023-03-04T17:23:37.908Z,8.06
2023-03-04T17:26:11.109Z,8.08
2023-03-04T17:28:45.003Z,8.09
2023-03-04T17:31:20.012Z,8.06
2023-03-04T17:33:54.861Z,8.06
2023-03-04T17:36:28.073Z,8.06
2023-03-04T17:39:01.335Z,8.00
2023-03-04T17:41:36.307Z,8.00
2023-03-04T17:44:09.367Z,8.03
2023-03-04T17:46:42.497Z,7.97
2023-03-04T17:49:17.412Z,7.98
2023-03-04T17:51:52.597Z,8.00
2023-03-04T17:54:26.329Z,7.96
2023-03-04T17:57:03.026Z,7.97
2023-03-04T17:59:39.625Z,7.93
2023-03-04T18:02:14.898Z,7.90
2023-03-04T18:04:52.773Z,7.85
2023-03-04T18:07:26.255Z,7.83
2023-03-04T18:09:59.234Z,7.77
2023-03-04T18:12:39.428Z,7.77
2023-03-04T18:15:14.819Z,7.77
2023-03-04T18:17:48.596Z,7.76
2023-03-04T18:20:23.174Z,7.75
2023-03-04T18:22:57.633Z,7.79
2023-03-04T18:25:30.916Z,7.80
2023-03-04T18:28:04.402Z,7.80
2023-03-04T18:30:39.472Z,7.80
2023-03-04T18:33:13.273Z,7.80
2023-03-04T18:35:47.794Z,7.74
2023-03-04T18:38:20.875Z,7.69
2023-03-04T18:41:00.774Z,7.62
2023-03-04T18:43:37.376Z,7.52
2023-03-04T18:46:11.931Z,7.51
2023-03-04T18:48:47.412Z,7.53
2023-03-04T18:51:22.381Z,7.43
2023-03-04T18:53:55.846Z,7.39
2023-03-04T18:56:38.537Z,7.29
2023-03-04T18:59:20.060Z,7.29
2023-03-04T19:01:55.617Z,7.30
2023-03-04T19:04:29.726Z,7.19
2023-03-04T19:07:04.560Z,7.13
2023-03-04T19:09:39.631Z,7.10
2023-03-04T19:12:15.918Z,7.05
2023-03-04T19:14:49.994Z,6.96
2023-03-04T19:17:25.997Z,6.96
2023-03-04T19:20:03.196Z,6.93
2023-03-04T19:22:39.324Z,6.95
2023-03-04T19:25:12.918Z,6.89
2023-03-04T19:27:46.757Z,6.75
2023-03-04T19:30:20.432Z,6.75
2023-03-04T19:32:55.074Z,6.78
2023-03-04T19:35:28.694Z,6.74
2023-03-04T19:38:03.306Z,6.68
2023-03-04T19:40:40.350Z,6.62
2023-03-04T19:43:13.823Z,6.59
2023-03-04T19:45:53.524Z,6.68
2023-03-04T19:48:26.958Z,6.58
2023-03-04T19:50:59.974Z,6.51
2023-03-04T19:53:35.012Z,6.52
2023-03-04T19:56:08.396Z,6.58
2023-03-04T19:58:41.578Z,6.55
2023-03-04T20:01:21.369Z,6.50
2023-03-04T20:03:55.244Z,6.48
2023-03-04T20:06:28.870Z,6.47
2023-03-04T20:09:03.736Z,6.40
2023-03-04T20:11:44.298Z,6.34
2023-03-04T20:14:29.125Z,6.23
2023-03-04T20:17:03.422Z,6.22
2023-03-04T20:19:36.729Z,6.10
2023-03-04T20:22:10.024Z,6.08
2023-03-04T20:24:44.751Z,6.13
2023-03-04T20:27:18.455Z,6.01
2023-03-04T20:29:51.839Z,5.85
2023-03-04T20:32:25.072Z,5.90
2023-03-04T20:34:58.420Z,5.81
2023-03-04T20:37:31.469Z,5.78
2023-03-04T20:40:06.351Z,5.73
2023-03-04T20:42:39.349Z,5.70
2023-03-04T20:45:12.971Z,5.70
2023-03-04T20:47:48.707Z,5.63
2023-03-04T20:50:22.060Z,5.56
2023-03-04T20:52:55.072Z,5.51
2023-03-04T20:55:30.381Z,5.43
2023-03-04T20:58:04.541Z,5.43
2023-03-04T21:00:38.351Z,5.37
2023-03-04T21:03:12.209Z,5.25
2023-03-04T21:05:45.409Z,5.30
2023-03-04T21:08:18.395Z,5.29
2023-03-04T21:10:52.771Z,5.27
2023-03-04T21:13:30.152Z,5.16
2023-03-04T21:16:04.408Z,5.28
2023-03-04T21:18:37.825Z,5.20
2023-03-04T21:21:12.041Z,5.11
2023-03-04T21:23:46.667Z,5.14
2023-03-04T21:26:22.174Z,5.09
2023-03-04T21:28:55.755Z,5.12
2023-03-04T21:31:30.665Z,5.07
2023-03-04T21:34:03.891Z,4.91
2023-03-04T21:36:37.060Z,4.80
2023-03-04T21:39:13.497Z,4.86
2023-03-04T21:41:48.100Z,4.76
2023-03-04T21:44:28.579Z,4.68
2023-03-04T21:47:07.107Z,4.65
2023-03-04T21:49:40.563Z,4.64
2023-03-04T21:52:13.856Z,4.66
2023-03-04T21:54:47.747Z,4.70
2023-03-04T21:57:22.404Z,4.58
2023-03-04T21:59:55.865Z,4.64
2023-03-04T22:02:28.845Z,4.59
2023-03-04T22:05:01.993Z,4.59
2023-03-04T22:07:36.158Z,4.48
2023-03-04T22:10:09.388Z,4.27
2023-03-04T22:12:45.191Z,4.30
2023-03-04T22:15:19.291Z,4.34
2023-03-04T22:17:52.796Z,4.29
2023-03-04T22:20:25.843Z,4.26
2023-03-04T22:22:58.799Z,4.22
2023-03-04T22:25:32.377Z,4.19
2023-03-04T22:28:07.192Z,4.10
2023-03-04T22:30:40.480Z,4.16
2023-03-04T22:33:13.906Z,4.07
2023-03-04T22:35:47.072Z,3.98
2023-03-04T22:38:20.273Z,3.97
2023-03-04T22:40:53.307Z,4.01
2023-03-04T22:43:27.977Z,4.11
2023-03-04T22:46:01.817Z,4.03
2023-03-04T22:48:35.018Z,4.08
2023-03-04T22:51:09.855Z,3.96
2023-03-04T22:53:43.582Z,3.84
2023-03-04T22:56:16.839Z,3.89
2023-03-04T22:58:51.333Z,3.86
2023-03-04T23:01:24.550Z,3.83
2023-03-04T23:03:57.593Z,3.86
2023-03-04T23:06:31.580Z,3.64
2023-03-04T23:09:05.164Z,3.69
2023-03-04T23:11:39.488Z,3.74
2023-03-04T23:14:14.359Z,3.82
2023-03-04T23:16:49.301Z,3.86
2023-03-04T23:19:22.350Z,3.72
2023-03-04T23:21:55.978Z,3.61
2023-03-04T23:24:29.480Z,3.79
2023-03-04T23:27:02.469Z,3.63
2023-03-04T23:29:36.861Z,3.71
2023-03-04T23:32:10.342Z,3.62
2023-03-04T23:34:43.314Z,3.59
2023-03-04T23:37:16.203Z,3.71
2023-03-04T23:39:49.871Z,3.69
2023-03-04T23:42:23.490Z,3.70
2023-03-04T23:44:57.923Z,3.69
2023-03-04T23:47:30.908Z,3.63
2023-03-04T23:50:06.419Z,3.76
2023-03-04T23:52:40.362Z,3.61
2023-03-04T23:55:16.438Z,3.56
2023-03-04T23:57:49.696Z,3.49
